Time;durP1;ratioP1;P1;durP2;ratioP2;P2;SDS_P1;SDS_P2;PMS_P1;PMS_P2;Temp;Humidity;BMP_temperature;BMP_pressure;BME280_temperature;BME280_humidity;BME280_pressure;Samples;Min_cycle;Max_cycle;Signal;HPM_P1;HPM_P2
2022/08/26 00:01:33;;;;;;;31.03;21.07;;;22.90;1.00;;;;;;5089894;28;20542;-56
2022/08/26 00:03:59;;;;;;;25.50;19.03;;;22.90;1.00;;;;;;5090516;28;20436;-55
2022/08/26 00:06:25;;;;;;;22.70;20.17;;;23.00;1.00;;;;;;5090080;28;20217;-55
2022/08/26 00:08:51;;;;;;;27.00;21.13;;;23.00;1.00;;;;;;5083572;28;20449;-55
2022/08/26 00:11:17;;;;;;;21.93;19.60;;;22.90;1.00;;;;;;5089516;28;20182;-54
2022/08/26 00:13:43;;;;;;;31.13;20.60;;;22.90;1.00;;;;;;5090279;28;20210;-56
2022/08/26 00:16:09;;;;;;;27.80;20.50;;;22.90;1.00;;;;;;5089068;28;20532;-57
2022/08/26 00:18:36;;;;;;;29.43;21.27;;;22.90;1.00;;;;;;5090302;28;20911;-56
2022/08/26 00:21:07;;;;;;;25.13;20.80;;;22.80;1.00;;;;;;5089685;28;20449;-54
2022/08/26 00:23:32;;;;;;;25.93;20.83;;;22.80;1.00;;;;;;5089450;28;20433;-56
2022/08/26 00:25:59;;;;;;;23.43;20.90;;;22.80;1.00;;;;;;5088831;28;20827;-55
2022/08/26 00:28:25;;;;;;;24.97;21.10;;;22.80;1.00;;;;;;5087211;28;20331;-56
2022/08/26 00:30:50;;;;;;;32.53;22.13;;;22.70;1.00;;;;;;5089108;28;20422;-56
2022/08/26 00:33:17;;;;;;;28.07;21.33;;;22.70;1.00;;;;;;5087983;28;20209;-56
2022/08/26 00:35:43;;;;;;;23.50;21.17;;;22.60;1.00;;;;;;5090178;28;20179;-56
2022/08/26 00:38:09;;;;;;;27.17;21.70;;;22.70;1.00;;;;;;5090142;28;20931;-55
2022/08/26 00:40:39;;;;;;;24.90;22.20;;;22.70;1.00;;;;;;5089996;28;20498;-56
2022/08/26 00:43:05;;;;;;;27.47;22.77;;;22.60;1.00;;;;;;5086148;28;20452;-54
2022/08/26 00:45:42;;;;;;;24.53;21.60;;;22.60;1.00;;;;;;5089878;28;20423;-55
2022/08/26 00:48:09;;;;;;;32.47;22.40;;;22.60;1.00;;;;;;5088612;28;20846;-55
2022/08/26 00:50:41;;;;;;;25.57;22.77;;;22.70;1.00;;;;;;5071786;28;20427;-55
2022/08/26 00:53:23;;;;;;;32.60;21.90;;;22.60;1.00;;;;;;5090120;28;20435;-55
2022/08/26 00:56:30;;;;;;;27.77;22.63;;;22.70;1.00;;;;;;5090083;28;20441;-55
2022/08/26 00:58:59;;;;;;;26.50;22.00;;;22.60;1.00;;;;;;4975408;28;20580;-54
2022/08/26 01:01:26;;;;;;;28.43;21.10;;;22.50;1.00;;;;;;4985087;28;20486;-55
2022/08/26 01:03:54;;;;;;;38.37;23.03;;;22.50;1.00;;;;;;5041034;28;20430;-56
2022/08/26 01:06:21;;;;;;;29.47;21.13;;;22.50;1.00;;;;;;5089713;28;20460;-56
2022/08/26 01:08:47;;;;;;;27.90;21.33;;;22.50;1.00;;;;;;5089472;28;20433;-55
2022/08/26 01:11:14;;;;;;;23.53;21.10;;;22.50;1.00;;;;;;5089866;28;20408;-54
2022/08/26 01:13:41;;;;;;;34.70;21.50;;;22.40;1.00;;;;;;5088466;28;20530;-54
2022/08/26 01:18:34;;;;;;;24.23;20.57;;;22.30;1.00;;;;;;5089616;28;20410;-54
2022/08/26 01:21:18;;;;;;;27.30;21.27;;;22.30;1.00;;;;;;5089490;28;20946;-55
2022/08/26 01:23:50;;;;;;;26.77;20.17;;;22.30;1.00;;;;;;5089238;28;20494;-56
2022/08/26 01:26:24;;;;;;;29.23;20.43;;;22.20;1.00;;;;;;5088163;28;20447;-55
2022/08/26 01:28:54;;;;;;;26.60;19.73;;;22.20;1.00;;;;;;5090714;28;20441;-55
2022/08/26 01:31:29;;;;;;;26.80;21.23;;;22.30;1.00;;;;;;5091520;28;20455;-56
2022/08/26 01:34:01;;;;;;;24.23;21.20;;;22.30;1.00;;;;;;5091905;28;20496;-55
2022/08/26 01:36:28;;;;;;;29.23;22.90;;;22.20;1.00;;;;;;5093431;28;20399;-56
2022/08/26 01:38:53;;;;;;;29.10;21.17;;;22.20;1.00;;;;;;5092768;28;20483;-56
2022/08/26 01:41:20;;;;;;;25.03;20.80;;;22.10;1.00;;;;;;5093129;28;20433;-55
2022/08/26 01:43:50;;;;;;;26.80;21.30;;;22.10;1.00;;;;;;5090399;28;20229;-53
2022/08/26 01:46:17;;;;;;;22.93;20.70;;;22.10;1.00;;;;;;5092929;28;20468;-54
2022/08/26 01:48:44;;;;;;;27.13;21.20;;;22.10;1.00;;;;;;5093000;28;20409;-56
2022/08/26 01:51:11;;;;;;;27.67;20.70;;;22.00;1.00;;;;;;5092877;28;20440;-55
2022/08/26 01:53:39;;;;;;;27.90;22.30;;;22.00;1.00;;;;;;5092622;28;20412;-54
2022/08/26 01:56:10;;;;;;;31.57;21.80;;;22.00;1.00;;;;;;5090870;28;20747;-55
2022/08/26 01:58:50;;;;;;;28.23;22.00;;;22.00;1.00;;;;;;5092085;28;20403;-56
2022/08/26 02:01:16;;;;;;;32.07;22.63;;;22.00;1.00;;;;;;5089314;28;20434;-56
2022/08/26 02:03:55;;;;;;;26.70;22.00;;;22.00;1.00;;;;;;5092657;28;20407;-56
2022/08/26 02:06:22;;;;;;;27.93;21.90;;;22.00;1.00;;;;;;5092336;28;20758;-55
2022/08/26 02:08:51;;;;;;;32.23;23.50;;;22.00;1.00;;;;;;5074490;28;20928;-54
2022/08/26 02:11:16;;;;;;;24.70;21.97;;;22.00;1.00;;;;;;5092106;28;20407;-56
2022/08/26 02:13:55;;;;;;;24.47;21.90;;;22.10;1.00;;;;;;5090980;28;20429;-55
2022/08/26 02:16:25;;;;;;;24.70;21.33;;;22.00;1.00;;;;;;5091299;28;20288;-55
2022/08/26 02:18:52;;;;;;;28.53;22.80;;;21.90;1.00;;;;;;5092152;28;20445;-55
2022/08/26 02:21:18;;;;;;;31.73;22.30;;;21.90;1.00;;;;;;5071979;28;20422;-55
2022/08/26 02:23:43;;;;;;;26.63;22.93;;;21.90;1.00;;;;;;5091793;28;20762;-55
2022/08/26 02:26:13;;;;;;;27.10;22.20;;;21.90;1.00;;;;;;5091451;28;20179;-55
2022/08/26 02:29:02;;;;;;;24.27;21.27;;;21.90;1.00;;;;;;5092301;28;20183;-55
2022/08/26 02:31:28;;;;;;;30.33;21.20;;;21.90;1.00;;;;;;5089187;28;20843;-56
2022/08/26 02:33:54;;;;;;;27.63;23.33;;;21.90;1.00;;;;;;5090852;28;20440;-55
2022/08/26 02:36:21;;;;;;;28.67;21.87;;;21.90;1.00;;;;;;5091578;28;20179;-56
2022/08/26 02:38:47;;;;;;;33.90;23.93;;;21.90;1.00;;;;;;5090506;28;20218;-56
2022/08/26 02:41:12;;;;;;;25.70;22.30;;;21.90;1.00;;;;;;5091562;28;20417;-55
2022/08/26 02:43:38;;;;;;;27.73;22.50;;;21.90;1.00;;;;;;5092027;28;20186;-55
2022/08/26 02:46:09;;;;;;;27.17;22.93;;;21.80;1.00;;;;;;5090692;28;20663;-55
2022/08/26 02:48:36;;;;;;;26.67;22.53;;;21.90;1.00;;;;;;5091718;28;20186;-55
2022/08/26 02:53:32;;;;;;;26.10;23.23;;;21.90;1.00;;;;;;5091494;28;20904;-55
2022/08/26 02:55:58;;;;;;;25.30;22.67;;;21.80;1.00;;;;;;5089492;28;20451;-55
2022/08/26 02:58:23;;;;;;;29.97;23.70;;;21.80;1.00;;;;;;5090724;28;20183;-55
2022/08/26 03:00:49;;;;;;;27.27;22.63;;;21.80;1.00;;;;;;5087426;28;20206;-56
2022/08/26 03:03:15;;;;;;;25.07;21.87;;;21.80;1.00;;;;;;5088096;28;20186;-55
2022/08/26 03:05:41;;;;;;;26.33;22.87;;;21.80;1.00;;;;;;5091638;28;20273;-55
2022/08/26 03:08:10;;;;;;;26.90;21.70;;;21.70;1.00;;;;;;5091461;28;20443;-55
2022/08/26 03:10:36;;;;;;;28.70;22.47;;;21.80;1.00;;;;;;5090686;28;20444;-55
2022/08/26 03:13:02;;;;;;;26.53;22.90;;;21.80;1.00;;;;;;5090915;28;20431;-56
2022/08/26 03:15:28;;;;;;;31.43;23.37;;;21.70;1.00;;;;;;5090224;28;20432;-54
2022/08/26 03:17:54;;;;;;;31.23;23.13;;;21.70;1.00;;;;;;5091019;28;20190;-55
2022/08/26 03:20:20;;;;;;;33.40;22.20;;;21.70;1.00;;;;;;5091289;28;20195;-56
2022/08/26 03:22:46;;;;;;;25.40;21.57;;;21.70;1.00;;;;;;5091055;28;20453;-56
2022/08/26 03:25:14;;;;;;;29.77;23.23;;;21.70;1.00;;;;;;5089641;28;20242;-54
2022/08/26 03:27:40;;;;;;;25.00;22.40;;;21.70;1.00;;;;;;5089558;28;20447;-55
2022/08/26 03:32:50;;;;;;;25.30;22.57;;;21.70;1.00;;;;;;5089153;28;20208;-54
2022/08/26 03:35:16;;;;;;;28.07;23.43;;;21.60;1.00;;;;;;5090892;28;20407;-54
2022/08/26 03:37:42;;;;;;;29.40;22.73;;;21.60;1.00;;;;;;5090521;28;20670;-55
2022/08/26 03:40:09;;;;;;;29.60;22.77;;;21.70;1.00;;;;;;5090498;28;20210;-55
2022/08/26 03:42:40;;;;;;;27.80;23.77;;;21.70;1.00;;;;;;5090344;28;20468;-55
2022/08/26 03:45:08;;;;;;;25.33;22.60;;;21.70;1.00;;;;;;5089905;28;20440;-57
2022/08/26 03:47:33;;;;;;;28.63;23.20;;;21.60;1.00;;;;;;5070608;28;20481;-54
2022/08/26 03:49:59;;;;;;;24.53;21.63;;;21.60;1.00;;;;;;5089254;28;20476;-55
2022/08/26 03:52:25;;;;;;;24.17;21.77;;;21.50;1.00;;;;;;5090394;28;20556;-55
2022/08/26 03:54:50;;;;;;;26.60;22.50;;;21.50;1.00;;;;;;5089346;28;20171;-55
2022/08/26 03:57:16;;;;;;;28.60;22.63;;;21.60;1.00;;;;;;5088900;28;21044;-54
2022/08/26 03:59:42;;;;;;;29.63;22.07;;;21.50;1.00;;;;;;5090598;28;20179;-54
2022/08/26 04:02:08;;;;;;;26.83;22.17;;;21.50;1.00;;;;;;5089473;28;20243;-55
2022/08/26 04:04:34;;;;;;;27.60;23.33;;;21.50;1.00;;;;;;5090353;28;20182;-56
2022/08/26 04:07:00;;;;;;;30.67;22.33;;;21.50;1.00;;;;;;5089244;28;20389;-54
2022/08/26 04:09:26;;;;;;;26.77;21.87;;;21.50;1.00;;;;;;5090151;28;20958;-55
2022/08/26 04:11:53;;;;;;;29.30;23.57;;;21.50;1.00;;;;;;5089969;28;20167;-56
2022/08/26 04:14:22;;;;;;;29.33;21.90;;;21.50;1.00;;;;;;5090006;28;20514;-53
2022/08/26 04:16:49;;;;;;;24.17;21.63;;;21.50;1.00;;;;;;5088434;28;20440;-55
2022/08/26 04:19:16;;;;;;;27.77;22.47;;;21.50;1.00;;;;;;5090308;28;20439;-55
2022/08/26 04:21:42;;;;;;;24.20;20.80;;;21.40;1.00;;;;;;5090123;28;20423;-54
2022/08/26 04:24:10;;;;;;;25.00;21.80;;;21.50;1.00;;;;;;5089922;28;20410;-54
2022/08/26 04:26:37;;;;;;;28.07;21.43;;;21.50;1.00;;;;;;5090387;28;20790;-55
2022/08/26 04:29:09;;;;;;;28.67;21.90;;;21.70;1.00;;;;;;5090076;28;20443;-55
2022/08/26 04:31:36;;;;;;;26.13;21.83;;;21.50;1.00;;;;;;5090531;28;20440;-55
2022/08/26 04:34:02;;;;;;;28.00;22.53;;;21.60;1.00;;;;;;5090390;28;20811;-55
2022/08/26 04:36:28;;;;;;;24.03;21.43;;;21.60;1.00;;;;;;5089651;28;20500;-55
2022/08/26 04:38:54;;;;;;;29.70;22.53;;;21.60;1.00;;;;;;5090366;28;20518;-55
2022/08/26 04:41:20;;;;;;;26.00;23.27;;;21.60;1.00;;;;;;5090078;28;20479;-55
2022/08/26 04:43:47;;;;;;;28.00;21.73;;;21.60;1.00;;;;;;5090281;28;20411;-55
2022/08/26 04:46:17;;;;;;;25.57;21.87;;;21.60;1.00;;;;;;5089595;28;20186;-54
2022/08/26 04:48:42;;;;;;;28.73;22.30;;;21.60;1.00;;;;;;5087224;28;20415;-55
2022/08/26 04:51:09;;;;;;;25.27;22.63;;;21.60;1.00;;;;;;5090167;28;20411;-58
2022/08/26 04:53:35;;;;;;;28.77;21.87;;;21.60;1.00;;;;;;5088815;28;20540;-55
2022/08/26 04:56:01;;;;;;;28.03;20.93;;;21.70;1.00;;;;;;5089790;28;20452;-56
2022/08/26 04:58:26;;;;;;;23.00;20.60;;;21.80;1.00;;;;;;5085490;28;20437;-54
2022/08/26 05:00:55;;;;;;;28.27;22.10;;;21.80;1.00;;;;;;5088784;28;20202;-55
2022/08/26 05:03:22;;;;;;;25.20;22.50;;;21.90;1.00;;;;;;5093396;28;20178;-57
2022/08/26 05:05:49;;;;;;;27.37;21.90;;;21.90;1.00;;;;;;5092934;28;20449;-54
2022/08/26 05:08:17;;;;;;;29.30;23.10;;;21.90;1.00;;;;;;5092244;28;20487;-55
2022/08/26 05:10:48;;;;;;;24.63;21.70;;;21.90;1.00;;;;;;5092441;28;20941;-54
2022/08/26 05:13:19;;;;;;;24.77;21.33;;;21.90;1.00;;;;;;5091539;28;20447;-56
2022/08/26 05:15:46;;;;;;;27.73;22.47;;;21.90;1.00;;;;;;5088512;28;21173;-56
2022/08/26 05:18:13;;;;;;;30.60;22.47;;;21.90;1.00;;;;;;5090520;28;20967;-54
2022/08/26 05:20:40;;;;;;;25.50;21.37;;;21.80;1.00;;;;;;5092803;28;20419;-55
2022/08/26 05:23:05;;;;;;;23.53;21.13;;;21.90;1.00;;;;;;5092228;28;20432;-54
2022/08/26 05:25:35;;;;;;;27.37;21.30;;;21.90;1.00;;;;;;5090998;28;20451;-55
2022/08/26 05:28:01;;;;;;;30.00;22.70;;;21.80;1.00;;;;;;5088349;28;20210;-56
2022/08/26 05:30:28;;;;;;;28.80;22.60;;;21.80;1.00;;;;;;5092822;28;20902;-55
2022/08/26 05:32:54;;;;;;;26.50;21.77;;;22.00;1.00;;;;;;5092102;28;20178;-54
2022/08/26 05:35:19;;;;;;;27.57;22.50;;;22.10;1.00;;;;;;5093300;28;20449;-54
2022/08/26 05:37:45;;;;;;;32.77;23.57;;;22.20;1.00;;;;;;5092989;28;20179;-55
2022/08/26 05:40:11;;;;;;;28.10;21.70;;;22.20;1.00;;;;;;5093046;28;20218;-54
2022/08/26 05:42:36;;;;;;;28.03;22.23;;;22.30;1.00;;;;;;5092972;28;20201;-55
2022/08/26 05:45:02;;;;;;;27.77;22.07;;;22.30;1.00;;;;;;5092320;28;20185;-56
2022/08/26 05:47:28;;;;;;;34.70;22.57;;;22.10;1.00;;;;;;5092601;28;20646;-56
2022/08/26 05:49:54;;;;;;;26.27;22.10;;;22.20;1.00;;;;;;5092462;28;20532;-54
2022/08/26 05:52:20;;;;;;;26.70;22.80;;;;;;;;;;5092509;28;20640;-56
2022/08/26 05:54:46;;;;;;;28.30;22.90;;;22.20;1.00;;;;;;5092124;28;20475;-54
2022/08/26 05:57:12;;;;;;;26.83;21.93;;;22.30;1.00;;;;;;5092414;28;20468;-55
2022/08/26 05:59:38;;;;;;;24.50;20.60;;;22.40;1.00;;;;;;5092635;28;20560;-54
2022/08/26 06:02:05;;;;;;;25.77;21.80;;;22.40;1.00;;;;;;5090876;28;20439;-55
2022/08/26 06:04:31;;;;;;;29.53;22.80;;;22.50;1.00;;;;;;5092572;28;20481;-56
2022/08/26 06:06:57;;;;;;;24.80;22.03;;;22.50;1.00;;;;;;5092185;28;20448;-56
2022/08/26 06:09:23;;;;;;;24.53;21.20;;;22.60;1.00;;;;;;5091628;28;20179;-56
2022/08/26 06:11:48;;;;;;;26.60;20.50;;;22.70;1.00;;;;;;5092137;28;20433;-55
2022/08/26 06:14:16;;;;;;;28.57;22.03;;;22.70;1.00;;;;;;5092007;28;20191;-55
2022/08/26 06:16:43;;;;;;;25.97;23.27;;;22.70;1.00;;;;;;5092120;28;20498;-55
2022/08/26 06:19:11;;;;;;;25.23;20.00;;;22.60;1.00;;;;;;5090059;28;20423;-56
2022/08/26 06:21:39;;;;;;;25.33;20.30;;;22.70;1.00;;;;;;5092029;28;20431;-55
2022/08/26 06:26:59;;;;;;;23.53;20.23;;;22.80;1.00;;;;;;5092189;28;20918;-57
2022/08/26 06:29:25;;;;;;;30.80;21.20;;;22.90;1.00;;;;;;5091106;28;20941;-55
2022/08/26 06:31:52;;;;;;;24.10;19.60;;;22.90;1.00;;;;;;5091531;28;20835;-55
2022/08/26 06:34:18;;;;;;;22.60;20.23;;;23.00;1.00;;;;;;5090836;28;20454;-56
2022/08/26 06:36:44;;;;;;;27.67;20.77;;;23.00;1.00;;;;;;5089594;28;20407;-55
2022/08/26 06:39:12;;;;;;;24.07;21.37;;;23.10;1.00;;;;;;5088071;28;20238;-55
2022/08/26 06:41:38;;;;;;;26.13;20.60;;;23.20;1.00;;;;;;5091757;28;20197;-55
2022/08/26 06:44:05;;;;;;;22.97;18.90;;;23.30;1.00;;;;;;5091475;28;20415;-55
2022/08/26 06:46:33;;;;;;;27.37;20.20;;;23.50;1.00;;;;;;5091434;28;20468;-56
2022/08/26 06:48:59;;;;;;;25.70;20.80;;;23.60;1.00;;;;;;5091604;28;20419;-57
2022/08/26 06:51:31;;;;;;;21.93;17.70;;;23.80;1.00;;;;;;5091329;28;20440;-56
2022/08/26 06:53:59;;;;;;;23.13;17.83;;;24.00;1.00;;;;;;5091515;28;20225;-55
2022/08/26 06:56:28;;;;;;;21.47;18.60;;;24.10;1.00;;;;;;5090893;28;20445;-54
2022/08/26 06:58:54;;;;;;;27.03;19.93;;;24.40;1.00;;;;;;5091236;28;20441;-55
2022/08/26 07:01:26;;;;;;;26.87;18.40;;;24.50;1.00;;;;;;5091211;28;20410;-55
2022/08/26 07:03:53;;;;;;;28.50;19.80;;;24.70;1.00;;;;;;5073035;28;20179;-55
2022/08/26 07:06:20;;;;;;;23.70;19.17;;;24.70;1.00;;;;;;5091197;28;20431;-55
2022/08/26 07:08:47;;;;;;;25.10;19.90;;;24.90;1.00;;;;;;5091278;28;20990;-59
2022/08/26 07:11:13;;;;;;;24.10;19.80;;;25.00;1.00;;;;;;5091401;28;20515;-58
2022/08/26 07:13:38;;;;;;;22.90;18.83;;;25.10;1.00;;;;;;5090732;28;20411;-55
2022/08/26 07:16:11;;;;;;;22.00;19.70;;;25.20;1.00;;;;;;5090708;28;20432;-55
2022/08/26 07:18:38;;;;;;;23.20;18.47;;;25.10;1.00;;;;;;5090866;28;20540;-56
2022/08/26 07:21:09;;;;;;;21.50;18.33;;;25.10;1.00;;;;;;5091159;28;20403;-57
2022/08/26 07:23:35;;;;;;;26.07;20.53;;;25.10;1.00;;;;;;5090618;28;21156;-56
2022/08/26 07:26:10;;;;;;;23.00;19.07;;;25.20;1.00;;;;;;5090259;28;20501;-55
2022/08/26 07:28:37;;;;;;;22.47;18.17;;;25.40;1.00;;;;;;5090479;28;20442;-55
2022/08/26 07:31:12;;;;;;;27.53;18.90;;;25.50;1.00;;;;;;5090505;28;20444;-55
2022/08/26 07:33:38;;;;;;;23.67;18.57;;;25.60;1.00;;;;;;5088928;28;20436;-57
2022/08/26 07:36:09;;;;;;;24.50;20.30;;;25.90;1.00;;;;;;5090444;28;20437;-55
2022/08/26 07:38:36;;;;;;;22.10;19.60;;;26.00;1.00;;;;;;5090592;28;20430;-55
2022/08/26 07:41:02;;;;;;;30.93;20.13;;;26.20;1.00;;;;;;5090675;28;20476;-55
2022/08/26 07:43:28;;;;;;;30.83;19.77;;;26.20;1.00;;;;;;5090982;28;20403;-56
2022/08/26 07:45:54;;;;;;;23.13;19.50;;;26.00;1.00;;;;;;5090220;28;20167;-54
2022/08/26 07:48:20;;;;;;;25.20;17.97;;;25.90;1.00;;;;;;5090005;28;20464;-55
2022/08/26 07:50:46;;;;;;;21.63;17.50;;;26.10;1.00;;;;;;5090142;28;20175;-55
2022/08/26 07:53:13;;;;;;;27.37;19.60;;;26.20;1.00;;;;;;5090178;28;20415;-56
2022/08/26 07:55:38;;;;;;;29.10;20.13;;;26.50;1.00;;;;;;5089979;28;20469;-57
2022/08/26 07:58:04;;;;;;;24.10;17.70;;;26.70;1.00;;;;;;5090207;28;20440;-56
2022/08/26 08:00:31;;;;;;;20.97;17.50;;;27.00;1.00;;;;;;5090547;28;20193;-55
2022/08/26 08:02:58;;;;;;;31.83;17.73;;;27.70;1.00;;;;;;5089930;28;21307;-56
2022/08/26 08:05:24;;;;;;;27.00;16.13;;;27.70;1.00;;;;;;5090215;28;20437;-55
2022/08/26 08:07:51;;;;;;;29.20;18.73;;;27.70;1.00;;;;;;5089624;28;20469;-59
2022/08/26 08:10:21;;;;;;;30.80;18.30;;;29.20;1.00;;;;;;5090113;28;20428;-56
2022/08/26 08:12:48;;;;;;;26.80;16.60;;;28.00;1.00;;;;;;5090262;28;20432;-56
2022/08/26 08:15:15;;;;;;;25.23;18.10;;;27.90;1.00;;;;;;5089869;28;22699;-56
2022/08/26 08:17:42;;;;;;;25.67;17.10;;;27.80;1.00;;;;;;5071606;28;20439;-54
2022/08/26 08:20:09;;;;;;;23.50;17.13;;;27.90;1.00;;;;;;5089666;28;20445;-57
2022/08/26 08:22:35;;;;;;;20.57;16.10;;;27.70;1.00;;;;;;5072134;28;20972;-56
2022/08/26 08:25:00;;;;;;;22.33;17.57;;;28.30;1.00;;;;;;5089281;28;20468;-56
2022/08/26 08:27:26;;;;;;;27.03;17.43;;;28.50;1.00;;;;;;5089739;28;20476;-56
2022/08/26 08:29:53;;;;;;;21.80;16.00;;;28.90;1.00;;;;;;5090116;28;20521;-58
2022/08/26 08:32:19;;;;;;;20.00;16.13;;;28.90;1.00;;;;;;5089902;28;20187;-55
2022/08/26 08:34:45;;;;;;;25.17;15.00;;;29.00;1.00;;;;;;5089976;28;20460;-57
2022/08/26 08:37:11;;;;;;;21.53;15.60;;;29.20;1.00;;;;;;5091781;28;20415;-55
2022/08/26 08:39:37;;;;;;;21.23;14.47;;;29.20;1.00;;;;;;5094178;28;20522;-57
2022/08/26 08:42:37;;;;;;;26.93;14.67;;;29.40;1.00;;;;;;5092407;28;20975;-56
2022/08/26 08:45:09;;;;;;;17.47;13.37;;;29.50;1.00;;;;;;5090678;28;20950;-56
2022/08/26 08:47:49;;;;;;;20.00;12.67;;;29.40;1.00;;;;;;5093055;28;20443;-56
2022/08/26 08:50:40;;;;;;;28.03;15.37;;;29.20;1.00;;;;;;5093716;28;20456;-57
2022/08/26 08:53:29;;;;;;;18.60;13.10;;;29.20;1.00;;;;;;5090333;28;20436;-56
2022/08/26 08:56:31;;;;;;;28.53;14.03;;;29.50;1.00;;;;;;5075588;28;20418;-55
2022/08/26 08:59:12;;;;;;;24.40;14.10;;;29.80;1.00;;;;;;5093822;28;20448;-55
2022/08/26 09:01:55;;;;;;;21.13;12.67;;;29.60;1.00;;;;;;5093686;28;20428;-55
2022/08/26 09:04:20;;;;;;;18.43;12.87;;;30.20;1.00;;;;;;5093458;28;20444;-55
2022/08/26 09:06:48;;;;;;;18.80;11.90;;;30.20;1.00;;;;;;5093531;28;20486;-56
2022/08/26 09:09:21;;;;;;;19.10;12.53;;;31.20;1.00;;;;;;5093800;28;20175;-57
2022/08/26 09:11:46;;;;;;;25.03;11.60;;;31.20;1.00;;;;;;5093866;28;20498;-55
2022/08/26 09:14:12;;;;;;;19.30;13.00;;;31.70;1.00;;;;;;5093671;28;20921;-55
2022/08/26 09:17:12;;;;;;;22.50;12.80;;;31.90;1.00;;;;;;5090201;28;20182;-57
2022/08/26 09:19:57;;;;;;;22.87;11.90;;;31.70;1.00;;;;;;5079602;28;20217;-56
2022/08/26 09:22:35;;;;;;;15.33;10.93;;;31.80;1.00;;;;;;5093364;28;20438;-56
2022/08/26 09:25:03;;;;;;;25.93;13.23;;;31.90;1.00;;;;;;5089246;28;20498;-55
2022/08/26 09:27:44;;;;;;;21.20;11.97;;;31.80;1.00;;;;;;5092667;28;21163;-55
2022/08/26 09:30:34;;;;;;;20.37;12.87;;;31.30;1.00;;;;;;5093269;28;20437;-56
2022/08/26 09:33:02;;;;;;;29.60;13.07;;;30.90;1.00;;;;;;5092635;28;20445;-55
2022/08/26 09:35:35;;;;;;;24.73;13.40;;;30.40;1.00;;;;;;5092910;28;20487;-55
2022/08/26 09:38:01;;;;;;;28.60;14.10;;;30.00;1.00;;;;;;5093045;28;20441;-55
2022/08/26 09:40:33;;;;;;;24.80;13.17;;;29.70;1.00;;;;;;5093032;28;20445;-56
2022/08/26 09:43:14;;;;;;;24.60;12.40;;;29.50;1.00;;;;;;5092967;28;20425;-56
2022/08/26 09:45:43;;;;;;;25.17;13.87;;;29.20;1.00;;;;;;5092666;28;20448;-55
2022/08/26 09:48:08;;;;;;;23.23;13.10;;;29.10;1.00;;;;;;5091518;28;20459;-56
2022/08/26 09:50:57;;;;;;;19.10;13.27;;;29.00;1.00;;;;;;5092999;28;20421;-55
2022/08/26 09:53:26;;;;;;;22.60;13.80;;;28.90;1.00;;;;;;5093178;28;20637;-57
2022/08/26 09:56:36;;;;;;;21.53;12.80;;;28.90;1.00;;;;;;5092412;28;20921;-54
2022/08/26 09:59:02;;;;;;;19.23;11.73;;;29.10;1.00;;;;;;5088998;28;20452;-55
2022/08/26 10:01:34;;;;;;;26.73;14.17;;;28.80;1.00;;;;;;5092603;28;20462;-56
2022/08/26 10:04:13;;;;;;;24.10;13.67;;;28.80;1.00;;;;;;5092223;28;20489;-55
2022/08/26 10:06:54;;;;;;;28.43;13.97;;;28.80;1.00;;;;;;5092372;28;20793;-54
2022/08/26 10:09:20;;;;;;;28.13;13.63;;;28.90;1.00;;;;;;5092682;28;20425;-54
2022/08/26 10:11:50;;;;;;;23.67;12.30;;;29.00;1.00;;;;;;5092466;28;20754;-55
2022/08/26 10:14:38;;;;;;;23.40;12.00;;;28.90;1.00;;;;;;5092128;28;20446;-55
2022/08/26 10:17:41;;;;;;;29.20;13.47;;;29.00;1.00;;;;;;5090777;28;20429;-55
2022/08/26 10:20:22;;;;;;;21.97;12.47;;;29.00;1.00;;;;;;5092275;28;20447;-54
2022/08/26 10:23:00;;;;;;;24.47;13.03;;;28.90;1.00;;;;;;5092492;28;20436;-55
2022/08/26 10:25:31;;;;;;;21.53;13.13;;;28.90;1.00;;;;;;5092446;28;20445;-54
2022/08/26 10:28:10;;;;;;;23.53;12.27;;;28.80;1.00;;;;;;5091984;28;20581;-56
2022/08/26 10:30:41;;;;;;;19.33;12.20;;;28.60;1.00;;;;;;5092340;28;20515;-55
2022/08/26 10:33:09;;;;;;;24.10;13.50;;;28.60;1.00;;;;;;5091952;28;20425;-56
2022/08/26 10:35:40;;;;;;;16.53;11.83;;;28.50;1.00;;;;;;5092055;28;20810;-57
2022/08/26 10:38:15;;;;;;;20.40;13.20;;;28.50;1.00;;;;;;5091510;28;20534;-53
2022/08/26 10:40:51;;;;;;;17.43;12.37;;;28.60;1.00;;;;;;5092195;28;20744;-54
2022/08/26 10:43:22;;;;;;;23.83;13.00;;;28.90;1.00;;;;;;5091673;28;20424;-56
2022/08/26 10:45:51;;;;;;;20.00;11.33;;;29.10;1.00;;;;;;5091394;28;20501;-56
2022/08/26 10:48:28;;;;;;;19.17;11.90;;;29.00;1.00;;;;;;5091579;28;20547;-54
2022/08/26 10:50:55;;;;;;;18.57;12.03;;;29.20;1.00;;;;;;5091965;28;20439;-55
2022/08/26 10:53:39;;;;;;;18.63;12.13;;;29.10;1.00;;;;;;5091414;28;20945;-54
2022/08/26 10:56:15;;;;;;;17.33;11.80;;;29.10;1.00;;;;;;5091621;28;20945;-54
2022/08/26 10:59:05;;;;;;;22.00;11.90;;;29.10;1.00;;;;;;5091555;28;20968;-55
2022/08/26 11:01:54;;;;;;;17.87;13.10;;;28.80;1.00;;;;;;5091776;28;20528;-55
2022/08/26 11:05:03;;;;;;;18.10;9.60;;;29.10;1.00;;;;;;5090976;28;20461;-55
2022/08/26 11:07:34;;;;;;;18.93;10.50;;;29.10;1.00;;;;;;5090826;28;20460;-54
2022/08/26 11:10:19;;;;;;;13.37;10.27;;;29.10;1.00;;;;;;5091530;28;20556;-56
2022/08/26 11:12:57;;;;;;;19.00;11.77;;;29.40;1.00;;;;;;5040214;28;20441;-54
2022/08/26 11:15:23;;;;;;;22.23;11.13;;;29.70;1.00;;;;;;5090437;28;20431;-57
2022/08/26 11:17:51;;;;;;;25.83;11.60;;;30.10;1.00;;;;;;5091181;28;20947;-55
2022/08/26 11:20:38;;;;;;;17.83;10.80;;;30.60;1.00;;;;;;5091181;28;20440;-55
2022/08/26 11:23:22;;;;;;;19.60;10.83;;;31.10;1.00;;;;;;5090198;28;20520;-57
2022/08/26 11:26:09;;;;;;;16.70;10.90;;;31.60;1.00;;;;;;5084653;28;20439;-55
2022/08/26 11:28:34;;;;;;;23.80;11.80;;;32.20;1.00;;;;;;5090702;28;20471;-56
2022/08/26 11:31:00;;;;;;;17.53;11.07;;;32.20;1.00;;;;;;5090897;28;20428;-57
2022/08/26 11:33:56;;;;;;;18.00;9.90;;;31.90;1.00;;;;;;5090503;28;20191;-55
2022/08/26 11:36:46;;;;;;;14.30;9.00;;;31.90;1.00;;;;;;5088290;28;20445;-54
2022/08/26 11:39:18;;;;;;;18.63;9.27;;;31.80;1.00;;;;;;5090733;28;20530;-54
2022/08/26 11:41:47;;;;;;;18.90;9.40;;;32.10;1.00;;;;;;5090561;28;20550;-55
2022/08/26 11:44:22;;;;;;;13.50;8.00;;;32.30;1.00;;;;;;5090738;28;21046;-54
2022/08/26 11:46:59;;;;;;;13.23;8.30;;;32.70;1.00;;;;;;5090336;28;20450;-56
2022/08/26 11:49:27;;;;;;;13.37;7.37;;;32.70;1.00;;;;;;5090500;28;20486;-55
2022/08/26 11:52:08;;;;;;;17.30;8.17;;;32.60;1.00;;;;;;5085157;28;20460;-54
2022/08/26 11:54:34;;;;;;;13.43;8.20;;;32.70;1.00;;;;;;5090398;28;20442;-56
2022/08/26 11:57:01;;;;;;;10.20;8.83;;;32.80;1.00;;;;;;5090457;28;20989;-55
2022/08/26 11:59:35;;;;;;;15.63;7.63;;;33.10;1.00;;;;;;5090427;28;20190;-56
2022/08/26 12:02:01;;;;;;;6.00;5.27;;;33.30;1.00;;;;;;5090108;28;20980;-56
2022/08/26 12:04:36;;;;;;;8.20;6.13;;;33.20;1.00;;;;;;5089678;28;20444;-57
2022/08/26 12:07:07;;;;;;;8.87;7.03;;;33.20;1.00;;;;;;5089206;28;20464;-55
2022/08/26 12:09:36;;;;;;;9.70;6.03;;;32.80;1.00;;;;;;5089855;28;20520;-54
2022/08/26 12:12:17;;;;;;;8.77;6.57;;;32.70;1.00;;;;;;5089775;28;20743;-55
2022/08/26 12:14:43;;;;;;;6.63;5.97;;;32.60;1.00;;;;;;5089563;28;20436;-56
2022/08/26 12:17:24;;;;;;;9.20;6.90;;;32.10;1.00;;;;;;5090090;28;20433;-55
2022/08/26 12:19:50;;;;;;;9.50;7.27;;;32.20;1.00;;;;;;5090055;28;20414;-56
2022/08/26 12:22:26;;;;;;;9.17;7.33;;;32.40;1.00;;;;;;5090188;28;20771;-54
2022/08/26 12:24:57;;;;;;;10.87;7.40;;;32.40;1.00;;;;;;5089964;28;20206;-56
2022/08/26 12:27:29;;;;;;;13.70;8.10;;;32.30;1.00;;;;;;5089961;28;20938;-56
2022/08/26 12:30:07;;;;;;;11.60;8.20;;;32.50;1.00;;;;;;5089655;28;20444;-54
2022/08/26 12:32:34;;;;;;;14.63;7.53;;;33.00;1.00;;;;;;5090117;28;20433;-55
2022/08/26 12:35:01;;;;;;;9.93;7.63;;;33.30;1.00;;;;;;5086164;28;20942;-55
2022/08/26 12:37:32;;;;;;;9.50;7.20;;;33.20;1.00;;;;;;5090062;28;20433;-54
2022/08/26 12:40:33;;;;;;;10.70;7.80;;;33.10;1.00;;;;;;5089605;28;20467;-55
2022/08/26 12:43:00;;;;;;;11.53;7.83;;;32.90;1.00;;;;;;5087074;28;20437;-55
2022/08/26 12:45:35;;;;;;;11.40;7.57;;;33.10;1.00;;;;;;5090118;28;20566;-56
2022/08/26 12:48:06;;;;;;;10.87;7.60;;;33.20;1.00;;;;;;5085324;28;20461;-55
2022/08/26 12:50:35;;;;;;;13.53;8.10;;;33.10;1.00;;;;;;5090106;28;20437;-56
2022/08/26 12:53:10;;;;;;;11.73;8.10;;;33.00;1.00;;;;;;5089759;28;20496;-56
2022/08/26 12:55:44;;;;;;;9.93;8.07;;;33.00;1.00;;;;;;5089599;28;20436;-54
2022/08/26 12:58:11;;;;;;;15.13;7.27;;;33.00;1.00;;;;;;5089334;28;20424;-55
2022/08/26 13:00:39;;;;;;;10.07;7.20;;;33.20;1.00;;;;;;5089613;28;20795;-55
2022/08/26 13:03:33;;;;;;;11.77;7.47;;;33.40;1.00;;;;;;5089602;28;20916;-56
2022/08/26 13:06:28;;;;;;;12.30;7.47;;;33.70;1.00;;;;;;5089230;28;20437;-56